Time;durP1;ratioP1;P1;durP2;ratioP2;P2;SDS_P1;SDS_P2;PMS_P1;PMS_P2;Temp;Humidity;BMP_temperature;BMP_pressure;BME280_temperature;BME280_humidity;BME280_pressure;Samples;Min_cycle;Max_cycle;Signal;HPM_P1;HPM_P2
2024/03/03 00:02:20;;;;;;;;;;;;;;;5.82;66.15;101116.52;107609;1251;97752;-67
2024/03/03 00:04:48;;;;;;;;;;;;;;;5.82;66.01;101114.52;107521;1251;97941;-67
2024/03/03 00:07:17;;;;;;;;;;;;;;;5.83;66.01;101109.88;107523;1250;111752;-68
2024/03/03 00:09:45;;;;;;;;;;;;;;;5.82;66.04;101108.16;107537;1253;107598;-68
2024/03/03 00:12:15;;;;;;;;;;;;;;;5.81;66.03;101106.95;107599;1251;107477;-66
2024/03/03 00:14:44;;;;;;;;;;;;;;;5.78;66.20;101106.60;107533;1253;97793;-65
2024/03/03 00:17:14;;;;;;;;;;;;;;;5.77;66.12;101103.64;107612;1252;97714;-66
2024/03/03 00:19:42;;;;;;;;;;;;;;;5.77;66.22;101098.61;107624;1256;111369;-65
2024/03/03 00:22:10;;;;;;;;;;;;;;;5.78;66.17;101097.14;107596;1252;107606;-67
2024/03/03 00:24:39;;;;;;;;;;;;;;;5.78;66.37;101099.15;107565;1252;107642;-68
2024/03/03 00:27:08;;;;;;;;;;;;;;;5.77;66.56;101101.48;107567;1251;98058;-67
2024/03/03 00:29:36;;;;;;;;;;;;;;;5.75;66.42;101099.66;107502;1251;97837;-66
2024/03/03 00:32:04;;;;;;;;;;;;;;;5.75;66.64;101098.78;107570;1253;111531;-67
2024/03/03 00:34:35;;;;;;;;;;;;;;;5.74;66.50;101099.71;107567;1251;108511;-66
2024/03/03 00:37:03;;;;;;;;;;;;;;;5.72;66.35;101102.16;107539;1251;108938;-67
2024/03/03 00:39:32;;;;;;;;;;;;;;;5.71;66.40;101107.40;107471;1254;97833;-67
2024/03/03 00:42:00;;;;;;;;;;;;;;;5.70;66.29;101102.84;107568;1252;97826;-68
2024/03/03 00:44:28;;;;;;;;;;;;;;;5.70;66.59;101104.25;107592;1250;111717;-67
2024/03/03 00:46:57;;;;;;;;;;;;;;;5.70;66.63;101099.61;107616;1251;108161;-66
2024/03/03 00:49:25;;;;;;;;;;;;;;;5.70;66.79;101098.92;107567;1253;108662;-68
2024/03/03 00:51:53;;;;;;;;;;;;;;;5.71;66.90;101098.88;107571;1251;98502;-68
2024/03/03 00:54:22;;;;;;;;;;;;;;;5.71;67.04;101097.44;107561;1251;97864;-67
2024/03/03 00:56:50;;;;;;;;;;;;;;;5.71;66.91;101095.84;107607;1254;112057;-68
2024/03/03 00:59:19;;;;;;;;;;;;;;;5.71;67.06;101097.45;107588;1255;107710;-67
2024/03/03 01:01:47;;;;;;;;;;;;;;;5.71;67.23;101093.33;107546;1254;108713;-68
2024/03/03 01:04:15;;;;;;;;;;;;;;;5.71;67.00;101092.97;107536;1251;97858;-67
2024/03/03 01:06:44;;;;;;;;;;;;;;;5.70;67.20;101090.89;107464;1254;97775;-67
2024/03/03 01:09:12;;;;;;;;;;;;;;;5.69;67.35;101087.74;107531;1255;111426;-68
2024/03/03 01:11:40;;;;;;;;;;;;;;;5.70;67.50;101085.76;107577;1252;108970;-66
2024/03/03 01:14:09;;;;;;;;;;;;;;;5.69;67.54;101083.67;107586;1253;108544;-66
2024/03/03 01:16:38;;;;;;;;;;;;;;;5.69;67.48;101082.59;107562;1253;97816;-67
2024/03/03 01:19:07;;;;;;;;;;;;;;;5.69;67.76;101083.67;107561;1254;97822;-67
2024/03/03 01:21:38;;;;;;;;;;;;;;;5.69;67.86;101079.90;107565;1254;111573;-66
2024/03/03 01:24:07;;;;;;;;;;;;;;;5.69;67.91;101076.20;107522;1251;107981;-67
2024/03/03 01:26:37;;;;;;;;;;;;;;;5.70;67.82;101076.15;107579;1253;107229;-66
2024/03/03 01:29:05;;;;;;;;;;;;;;;5.69;68.01;101074.23;107559;1254;97845;-66
2024/03/03 01:31:33;;;;;;;;;;;;;;;5.69;67.92;101072.30;107681;1253;97832;-68
2024/03/03 01:34:02;;;;;;;;;;;;;;;5.69;67.89;101076.58;107599;1253;111894;-66
2024/03/03 01:36:30;;;;;;;;;;;;;;;5.68;67.93;101072.52;107606;1251;108831;-67
2024/03/03 01:38:59;;;;;;;;;;;;;;;5.68;67.89;101071.08;107566;1250;108732;-66
2024/03/03 01:41:27;;;;;;;;;;;;;;;5.69;67.81;101072.31;107503;1254;97986;-66
2024/03/03 01:43:56;;;;;;;;;;;;;;;5.70;67.70;101066.38;107496;1252;97866;-67
2024/03/03 01:46:25;;;;;;;;;;;;;;;5.71;67.61;101067.89;107575;1251;111307;-68
2024/03/03 01:48:53;;;;;;;;;;;;;;;5.70;67.33;101062.23;107554;1251;108006;-69
2024/03/03 01:51:22;;;;;;;;;;;;;;;5.70;67.20;101058.53;107621;1251;108608;-66
2024/03/03 01:53:52;;;;;;;;;;;;;;;5.69;67.52;101060.89;107564;1253;97848;-65
2024/03/03 01:56:23;;;;;;;;;;;;;;;5.69;67.56;101057.15;107558;1251;97835;-68
2024/03/03 01:58:54;;;;;;;;;;;;;;;5.69;67.35;101055.36;107649;1251;110205;-68
2024/03/03 02:01:23;;;;;;;;;;;;;;;5.70;67.37;101055.52;107598;1253;108105;-67
2024/03/03 02:03:52;;;;;;;;;;;;;;;5.70;67.42;101054.95;107615;1256;108308;-68
2024/03/03 02:06:22;;;;;;;;;;;;;;;5.70;67.52;101057.08;107612;1253;97850;-71
2024/03/03 02:08:50;;;;;;;;;;;;;;;5.70;67.51;101053.56;107542;1254;99290;-67
2024/03/03 02:11:19;;;;;;;;;;;;;;;5.71;67.70;101053.85;107606;1251;111146;-67
2024/03/03 02:13:47;;;;;;;;;;;;;;;5.71;67.70;101052.41;107564;1254;107938;-68
2024/03/03 02:16:16;;;;;;;;;;;;;;;5.71;67.71;101049.05;107583;1254;107757;-67
2024/03/03 02:18:44;;;;;;;;;;;;;;;5.70;67.60;101049.41;107529;1254;97835;-67
2024/03/03 02:21:12;;;;;;;;;;;;;;;5.70;67.79;101052.10;107544;1253;97953;-67
2024/03/03 02:23:41;;;;;;;;;;;;;;;5.71;67.84;101052.39;107594;1250;110881;-67
2024/03/03 02:26:08;;;;;;;;;;;;;;;5.71;68.04;101049.39;107593;1254;107966;-67
2024/03/03 02:28:39;;;;;;;;;;;;;;;5.70;68.09;101049.25;107550;1253;107865;-67
2024/03/03 02:31:08;;;;;;;;;;;;;;;5.69;67.99;101048.96;107573;1254;97953;-67
2024/03/03 02:33:36;;;;;;;;;;;;;;;5.69;67.89;101056.05;107621;1253;97839;-67
2024/03/03 02:36:05;;;;;;;;;;;;;;;5.67;67.72;101054.29;107646;1251;111801;-67
2024/03/03 02:38:33;;;;;;;;;;;;;;;5.63;67.91;101061.60;107657;1254;108407;-68
2024/03/03 02:41:01;;;;;;;;;;;;;;;5.60;68.03;101063.39;107553;1251;108680;-67
2024/03/03 02:43:29;;;;;;;;;;;;;;;5.56;67.99;101061.69;107575;1253;97887;-66
2024/03/03 02:45:58;;;;;;;;;;;;;;;5.53;67.80;101059.23;107587;1253;97714;-67
2024/03/03 02:48:26;;;;;;;;;;;;;;;5.51;67.99;101057.23;107657;1254;111874;-68
2024/03/03 02:50:55;;;;;;;;;;;;;;;5.48;68.00;101060.92;107608;1254;106995;-68
2024/03/03 02:53:23;;;;;;;;;;;;;;;5.48;67.93;101056.14;107538;1253;108111;-68
2024/03/03 02:55:51;;;;;;;;;;;;;;;5.50;68.01;101058.89;107568;1255;97820;-68
2024/03/03 02:58:19;;;;;;;;;;;;;;;5.53;67.97;101055.29;107441;1251;97782;-69
2024/03/03 03:00:48;;;;;;;;;;;;;;;5.56;67.92;101054.26;107633;1252;111050;-68
2024/03/03 03:03:16;;;;;;;;;;;;;;;5.58;67.85;101056.39;107583;1251;107453;-69
2024/03/03 03:05:44;;;;;;;;;;;;;;;5.60;67.97;101058.96;107555;1254;108023;-68
2024/03/03 03:08:13;;;;;;;;;;;;;;;5.60;68.01;101053.58;107559;1253;97818;-69
2024/03/03 03:10:41;;;;;;;;;;;;;;;5.60;67.96;101056.98;107630;1251;97857;-67
2024/03/03 03:13:09;;;;;;;;;;;;;;;5.61;68.10;101059.80;107585;1251;111789;-67
2024/03/03 03:15:38;;;;;;;;;;;;;;;5.61;68.12;101065.98;107602;1251;108480;-67
2024/03/03 03:18:06;;;;;;;;;;;;;;;5.61;68.03;101062.97;107567;1254;107972;-67
2024/03/03 03:20:35;;;;;;;;;;;;;;;5.60;68.01;101064.67;107550;1253;97707;-68
2024/03/03 03:23:03;;;;;;;;;;;;;;;5.57;67.92;101067.35;107551;1251;97926;-68
2024/03/03 03:25:32;;;;;;;;;;;;;;;5.54;67.85;101065.75;107532;1253;111122;-67
2024/03/03 03:28:00;;;;;;;;;;;;;;;5.52;68.00;101067.50;107585;1253;108342;-67
2024/03/03 03:30:29;;;;;;;;;;;;;;;5.50;67.93;101070.08;107581;1254;108984;-68
2024/03/03 03:32:57;;;;;;;;;;;;;;;5.48;68.17;101063.24;107615;1253;97837;-68
2024/03/03 03:35:25;;;;;;;;;;;;;;;5.51;68.29;101069.14;107610;1256;97893;-66
2024/03/03 03:37:53;;;;;;;;;;;;;;;5.52;68.28;101069.29;107592;1252;111913;-66
2024/03/03 03:40:22;;;;;;;;;;;;;;;5.52;68.25;101066.95;107550;1254;107824;-68
2024/03/03 03:42:50;;;;;;;;;;;;;;;5.53;68.65;101068.64;107544;1252;107660;-67
2024/03/03 03:45:19;;;;;;;;;;;;;;;5.55;68.47;101063.73;107533;1254;98018;-66
2024/03/03 03:47:47;;;;;;;;;;;;;;;5.55;68.80;101062.83;107535;1254;97906;-68
2024/03/03 03:50:16;;;;;;;;;;;;;;;5.56;68.84;101059.92;107525;1253;110781;-70
2024/03/03 03:52:44;;;;;;;;;;;;;;;5.56;68.71;101056.73;107640;1254;107219;-70
2024/03/03 03:55:12;;;;;;;;;;;;;;;5.56;68.84;101059.21;107566;1253;108036;-70
2024/03/03 03:57:40;;;;;;;;;;;;;;;5.56;68.75;101057.27;107578;1253;97854;-69
2024/03/03 04:00:10;;;;;;;;;;;;;;;5.54;68.66;101058.08;107538;1253;97970;-67
2024/03/03 04:02:41;;;;;;;;;;;;;;;5.53;68.69;101056.73;107516;1254;110983;-67
2024/03/03 04:05:09;;;;;;;;;;;;;;;5.53;68.75;101057.80;107569;1255;108256;-65
2024/03/03 04:07:38;;;;;;;;;;;;;;;5.52;68.84;101060.35;107567;1253;108368;-68
2024/03/03 04:10:09;;;;;;;;;;;;;;;5.50;68.91;101063.30;107514;1254;97835;-67
2024/03/03 04:12:37;;;;;;;;;;;;;;;5.47;68.87;101064.22;107585;1254;97873;-67
2024/03/03 04:15:07;;;;;;;;;;;;;;;5.44;68.82;101065.27;107542;1253;111529;-68
2024/03/03 04:17:35;;;;;;;;;;;;;;;5.44;68.73;101069.39;107574;1254;106457;-66
2024/03/03 04:20:05;;;;;;;;;;;;;;;5.43;68.88;101071.77;107552;1253;108738;-67
2024/03/03 04:22:33;;;;;;;;;;;;;;;5.41;68.77;101073.85;107521;1253;97929;-68
2024/03/03 04:25:02;;;;;;;;;;;;;;;5.41;68.85;101071.01;107562;1254;97847;-68
2024/03/03 04:27:31;;;;;;;;;;;;;;;5.39;68.63;101069.69;107560;1254;111780;-67
2024/03/03 04:30:00;;;;;;;;;;;;;;;5.37;68.68;101068.39;107546;1254;107891;-66
2024/03/03 04:32:28;;;;;;;;;;;;;;;5.34;68.73;101072.47;107559;1255;107909;-67
2024/03/03 04:34:59;;;;;;;;;;;;;;;5.33;69.09;101071.67;107492;1253;97717;-67
2024/03/03 04:37:28;;;;;;;;;;;;;;;5.35;69.22;101073.89;107520;1253;97834;-68
2024/03/03 04:39:57;;;;;;;;;;;;;;;5.36;69.27;101073.84;107561;1254;111405;-67
2024/03/03 04:42:26;;;;;;;;;;;;;;;5.37;69.08;101074.08;107567;1251;108040;-68
2024/03/03 04:44:54;;;;;;;;;;;;;;;5.35;68.87;101075.09;107538;1254;107308;-68
2024/03/03 04:47:22;;;;;;;;;;;;;;;5.31;69.07;101079.05;107581;1254;97826;-67
2024/03/03 04:49:51;;;;;;;;;;;;;;;5.30;69.12;101082.88;107619;1254;97755;-69
2024/03/03 04:52:19;;;;;;;;;;;;;;;5.29;69.21;101087.23;107583;1254;111889;-68
2024/03/03 04:54:48;;;;;;;;;;;;;;;5.28;69.44;101086.68;107590;1251;108469;-70
2024/03/03 04:57:16;;;;;;;;;;;;;;;5.27;69.29;101089.85;107554;1255;108489;-72
2024/03/03 04:59:44;;;;;;;;;;;;;;;5.26;69.51;101094.14;107590;1251;97864;-67
2024/03/03 05:02:12;;;;;;;;;;;;;;;5.25;69.15;101096.88;107593;1251;97816;-68
2024/03/03 05:04:41;;;;;;;;;;;;;;;5.27;68.99;101106.73;107595;1254;112292;-69
2024/03/03 05:07:09;;;;;;;;;;;;;;;5.28;68.58;101105.77;107587;1256;108466;-67
2024/03/03 05:09:38;;;;;;;;;;;;;;;5.28;68.73;101111.24;107501;1251;106179;-67
2024/03/03 05:12:06;;;;;;;;;;;;;;;5.31;68.61;101112.52;107547;1250;97928;-68
2024/03/03 05:14:34;;;;;;;;;;;;;;;5.32;68.71;101116.15;107588;1254;97726;-67
2024/03/03 05:17:03;;;;;;;;;;;;;;;5.34;68.65;101117.48;107630;1254;111894;-67
2024/03/03 05:19:31;;;;;;;;;;;;;;;5.36;68.80;101119.85;107575;1254;108559;-67
2024/03/03 05:21:59;;;;;;;;;;;;;;;5.38;68.85;101123.13;107606;1251;107852;-67
2024/03/03 05:24:28;;;;;;;;;;;;;;;5.41;68.80;101124.00;107636;1254;97941;-67
2024/03/03 05:26:56;;;;;;;;;;;;;;;5.42;68.67;101122.66;107561;1251;98014;-68
2024/03/03 05:29:26;;;;;;;;;;;;;;;5.43;68.52;101124.56;107581;1253;111690;-67
2024/03/03 05:31:55;;;;;;;;;;;;;;;5.46;68.52;101126.52;107581;1253;108837;-68
2024/03/03 05:34:23;;;;;;;;;;;;;;;5.49;68.39;101122.07;107559;1251;107288;-68
2024/03/03 05:36:51;;;;;;;;;;;;;;;5.53;68.06;101124.68;107659;1251;99322;-67
2024/03/03 05:39:21;;;;;;;;;;;;;;;5.59;67.98;101130.57;107575;1254;97788;-67
2024/03/03 05:41:50;;;;;;;;;;;;;;;5.62;67.80;101130.85;107553;1251;111364;-68
2024/03/03 05:44:19;;;;;;;;;;;;;;;5.68;67.55;101133.39;107626;1251;108364;-68
2024/03/03 05:46:47;;;;;;;;;;;;;;;5.73;67.65;101132.20;107565;1252;108007;-67
2024/03/03 05:49:15;;;;;;;;;;;;;;;5.79;67.40;101134.66;107559;1251;97828;-68
2024/03/03 05:51:44;;;;;;;;;;;;;;;5.82;67.17;101133.77;107623;1251;98116;-71
2024/03/03 05:54:13;;;;;;;;;;;;;;;5.85;67.17;101138.54;107661;1254;111489;-71
2024/03/03 05:56:41;;;;;;;;;;;;;;;5.89;67.09;101140.22;107573;1254;107990;-70
2024/03/03 05:59:09;;;;;;;;;;;;;;;5.94;67.21;101140.15;107536;1253;108526;-69
2024/03/03 06:01:37;;;;;;;;;;;;;;;6.00;67.04;101140.89;107531;1254;97808;-70
2024/03/03 06:04:06;;;;;;;;;;;;;;;6.03;66.71;101142.41;107606;1254;97944;-67
2024/03/03 06:06:34;;;;;;;;;;;;;;;6.07;67.14;101140.57;107610;1254;111188;-69
2024/03/03 06:09:04;;;;;;;;;;;;;;;6.11;67.01;101141.06;107608;1254;110638;-67
2024/03/03 06:11:32;;;;;;;;;;;;;;;6.13;67.06;101142.86;107540;1255;107078;-66
2024/03/03 06:14:00;;;;;;;;;;;;;;;6.18;67.17;101149.36;107570;1254;97831;-67
2024/03/03 06:16:29;;;;;;;;;;;;;;;6.21;67.02;101150.23;107578;1254;98007;-67
2024/03/03 06:18:58;;;;;;;;;;;;;;;6.24;66.92;101144.48;107597;1254;112129;-68
2024/03/03 06:21:26;;;;;;;;;;;;;;;6.28;66.94;101141.42;107610;1254;107111;-68
2024/03/03 06:23:55;;;;;;;;;;;;;;;6.34;66.86;101141.35;107570;1252;108444;-68
2024/03/03 06:26:31;;;;;;;;;;;;;;;6.42;66.90;101141.43;107602;1251;97815;-68
2024/03/03 06:29:00;;;;;;;;;;;;;;;6.47;66.86;101141.04;107619;1254;97717;-67
2024/03/03 06:31:31;;;;;;;;;;;;;;;6.54;66.70;101138.29;107567;1253;111003;-67
2024/03/03 06:34:00;;;;;;;;;;;;;;;6.59;66.24;101142.56;107532;1253;108758;-66
2024/03/03 06:36:28;;;;;;;;;;;;;;;6.63;65.88;101136.63;107595;1255;108303;-67
2024/03/03 06:38:56;;;;;;;;;;;;;;;6.68;65.91;101137.58;107535;1254;97841;-67
2024/03/03 06:41:25;;;;;;;;;;;;;;;6.71;65.15;101131.98;107580;1254;97979;-66
2024/03/03 06:43:55;;;;;;;;;;;;;;;6.73;64.97;101134.17;107557;1254;111141;-66
2024/03/03 06:46:24;;;;;;;;;;;;;;;6.78;64.60;101137.09;107547;1254;108622;-67
2024/03/03 06:48:52;;;;;;;;;;;;;;;6.80;64.65;101140.70;107563;1251;108176;-67
2024/03/03 06:51:20;;;;;;;;;;;;;;;6.84;64.68;101141.98;107588;1256;97989;-68
2024/03/03 06:53:49;;;;;;;;;;;;;;;6.89;64.76;101139.92;107546;1254;97751;-68
2024/03/03 06:56:17;;;;;;;;;;;;;;;6.93;63.68;101138.59;107602;1254;111470;-69
2024/03/03 06:58:46;;;;;;;;;;;;;;;6.94;62.71;101134.04;107475;1254;107991;-67
2024/03/03 07:01:14;;;;;;;;;;;;;;;6.97;62.07;101134.59;107522;1255;108242;-67
2024/03/03 07:06:30;;;;;;;;;;;;;;;7.01;61.54;101133.55;107632;1255;97704;-67
2024/03/03 07:08:58;;;;;;;;;;;;;;;7.06;61.64;101134.66;107587;1254;111951;-67
2024/03/03 07:11:26;;;;;;;;;;;;;;;7.14;61.20;101138.95;107582;1254;107762;-68
2024/03/03 07:13:55;;;;;;;;;;;;;;;7.20;61.33;101137.84;107506;1254;108082;-67
2024/03/03 07:16:23;;;;;;;;;;;;;;;7.28;61.35;101142.12;107531;1254;97835;-67
2024/03/03 07:18:53;;;;;;;;;;;;;;;7.34;61.02;101141.66;107584;1254;97861;-68
2024/03/03 07:21:21;;;;;;;;;;;;;;;7.39;60.51;101142.38;107665;1254;111418;-67
2024/03/03 07:23:49;;;;;;;;;;;;;;;7.44;60.58;101138.15;107609;1254;108775;-68
2024/03/03 07:26:17;;;;;;;;;;;;;;;7.51;60.22;101142.46;107566;1253;108129;-68
2024/03/03 07:28:46;;;;;;;;;;;;;;;7.60;60.23;101134.74;107534;1254;97828;-69
2024/03/03 07:31:14;;;;;;;;;;;;;;;7.71;60.47;101142.86;107499;1254;97854;-68
2024/03/03 07:33:42;;;;;;;;;;;;;;;7.83;60.23;101138.80;107584;1254;111832;-67
2024/03/03 07:36:10;;;;;;;;;;;;;;;7.97;60.04;101132.27;107613;1251;106958;-67
2024/03/03 07:38:39;;;;;;;;;;;;;;;8.14;60.14;101131.83;107613;1251;108154;-67
2024/03/03 07:41:07;;;;;;;;;;;;;;;8.28;60.03;101134.36;107533;1251;97829;-68
2024/03/03 07:43:35;;;;;;;;;;;;;;;8.40;59.53;101135.80;107543;1251;97800;-66
2024/03/03 07:46:04;;;;;;;;;;;;;;;8.49;58.89;101132.48;107557;1254;111084;-67
2024/03/03 07:48:32;;;;;;;;;;;;;;;8.54;59.09;101136.43;107586;1251;108392;-66
2024/03/03 07:51:04;;;;;;;;;;;;;;;8.59;58.92;101138.38;107567;1254;108176;-68
2024/03/03 07:53:32;;;;;;;;;;;;;;;8.66;58.14;101137.87;107564;1254;97844;-68
2024/03/03 07:56:00;;;;;;;;;;;;;;;8.67;57.61;101136.15;107640;1251;97931;-68
2024/03/03 07:58:28;;;;;;;;;;;;;;;8.71;57.76;101134.77;107648;1250;111461;-68
2024/03/03 08:00:58;;;;;;;;;;;;;;;8.79;57.83;101141.35;107609;1256;109564;-69
2024/03/03 08:03:27;;;;;;;;;;;;;;;8.81;57.45;101144.63;107574;1251;108455;-67
2024/03/03 08:05:55;;;;;;;;;;;;;;;8.88;57.74;101146.75;107567;1254;97924;-68
2024/03/03 08:08:23;;;;;;;;;;;;;;;9.00;57.67;101146.05;107595;1253;97812;-68
2024/03/03 08:10:52;;;;;;;;;;;;;;;9.15;56.93;101145.48;107570;1254;112176;-68
2024/03/03 08:13:20;;;;;;;;;;;;;;;9.23;56.69;101144.99;107621;1251;108331;-69
2024/03/03 08:15:48;;;;;;;;;;;;;;;9.35;56.56;101143.19;107600;1254;107597;-68
2024/03/03 08:18:17;;;;;;;;;;;;;;;9.47;55.88;101145.48;107559;1256;97900;-67
2024/03/03 08:20:45;;;;;;;;;;;;;;;9.56;55.51;101146.96;107624;1250;97707;-67
2024/03/03 08:23:15;;;;;;;;;;;;;;;9.59;54.53;101148.36;107558;1254;111608;-67
2024/03/03 08:25:43;;;;;;;;;;;;;;;9.62;54.77;101149.73;107586;1254;108299;-67
2024/03/03 08:28:11;;;;;;;;;;;;;;;9.67;54.68;101152.34;107565;1251;108223;-67
2024/03/03 08:30:40;;;;;;;;;;;;;;;9.74;54.61;101147.50;107584;1251;97845;-68
2024/03/03 08:33:08;;;;;;;;;;;;;;;9.82;54.37;101150.31;107557;1254;97714;-66
2024/03/03 08:35:37;;;;;;;;;;;;;;;9.89;53.79;101150.80;107561;1251;111094;-67
2024/03/03 08:38:05;;;;;;;;;;;;;;;9.94;53.00;101152.91;107622;1255;108154;-69
2024/03/03 08:40:33;;;;;;;;;;;;;;;9.99;52.49;101150.91;107526;1254;107874;-68
2024/03/03 08:43:02;;;;;;;;;;;;;;;10.07;52.06;101152.98;107609;1254;97867;-68
2024/03/03 08:45:30;;;;;;;;;;;;;;;10.07;51.44;101152.64;107539;1253;97771;-69
2024/03/03 08:47:59;;;;;;;;;;;;;;;10.10;51.40;101147.55;107236;1251;482204;-70
2024/03/03 08:50:27;;;;;;;;;;;;;;;10.14;51.87;101149.52;107555;1255;108571;-72
2024/03/03 08:52:55;;;;;;;;;;;;;;;10.16;51.31;101147.41;107626;1254;107813;-69
2024/03/03 08:55:23;;;;;;;;;;;;;;;10.18;50.96;101146.72;107559;1251;97822;-68
2024/03/03 08:57:52;;;;;;;;;;;;;;;10.12;50.44;101150.23;107599;1255;98063;-69
2024/03/03 09:00:21;;;;;;;;;;;;;;;9.99;49.77;101155.73;107570;1251;111434;-69
2024/03/03 09:02:49;;;;;;;;;;;;;;;9.94;50.73;101155.64;107538;1254;107838;-67
2024/03/03 09:05:18;;;;;;;;;;;;;;;9.95;51.02;101151.19;107544;1254;108826;-68
2024/03/03 09:07:46;;;;;;;;;;;;;;;9.93;50.63;101149.27;107588;1254;97835;-67
2024/03/03 09:10:14;;;;;;;;;;;;;;;9.95;51.17;101147.27;107572;1254;98495;-67
2024/03/03 09:12:42;;;;;;;;;;;;;;;10.04;51.38;101149.95;107508;1254;110881;-68
2024/03/03 09:15:11;;;;;;;;;;;;;;;10.08;50.17;101147.50;107612;1254;107946;-67
2024/03/03 09:17:39;;;;;;;;;;;;;;;10.04;50.72;101144.58;107592;1253;107670;-67
2024/03/03 09:20:08;;;;;;;;;;;;;;;10.09;50.77;101143.84;107588;1254;97912;-68
2024/03/03 09:22:38;;;;;;;;;;;;;;;10.23;50.59;101138.10;107641;1254;97714;-69
2024/03/03 09:25:08;;;;;;;;;;;;;;;10.31;50.07;101131.85;107583;1255;113285;-68
2024/03/03 09:27:36;;;;;;;;;;;;;;;10.33;48.78;101128.25;107619;1254;108318;-67
2024/03/03 09:30:06;;;;;;;;;;;;;;;10.44;49.72;101123.98;107576;1251;108669;-67
2024/03/03 09:32:36;;;;;;;;;;;;;;;10.77;49.81;101126.16;107539;1254;97850;-67
2024/03/03 09:35:06;;;;;;;;;;;;;;;11.10;48.44;101121.23;107603;1254;97717;-68
2024/03/03 09:37:34;;;;;;;;;;;;;;;11.43;47.92;101116.61;107587;1251;112765;-68
2024/03/03 09:40:11;;;;;;;;;;;;;;;11.86;47.19;101115.73;107560;1254;108814;-68
2024/03/03 09:42:43;;;;;;;;;;;;;;;11.97;46.57;101114.10;107558;1254;108188;-68
2024/03/03 09:45:19;;;;;;;;;;;;;;;11.98;47.14;101110.95;107394;1251;97854;-67
2024/03/03 09:47:49;;;;;;;;;;;;;;;11.98;46.97;101112.71;107536;1257;97854;-66
2024/03/03 09:50:18;;;;;;;;;;;;;;;12.02;46.54;101113.27;107482;1251;111901;-68
2024/03/03 09:52:48;;;;;;;;;;;;;;;11.99;46.02;101107.12;107508;1253;107480;-66
2024/03/03 09:55:18;;;;;;;;;;;;;;;11.90;45.22;101106.72;107470;1254;107188;-68
2024/03/03 09:57:47;;;;;;;;;;;;;;;11.96;46.50;101102.81;107562;1253;97784;-70
2024/03/03 10:00:17;;;;;;;;;;;;;;;12.06;46.59;101098.72;107528;1254;97875;-69
2024/03/03 10:02:46;;;;;;;;;;;;;;;12.20;46.68;101096.88;107651;1254;110602;-70
2024/03/03 10:05:15;;;;;;;;;;;;;;;12.36;46.14;101094.95;107492;1254;108471;-69
2024/03/03 10:07:47;;;;;;;;;;;;;;;12.49;45.84;101091.09;107518;1251;108570;-69
2024/03/03 10:10:17;;;;;;;;;;;;;;;12.79;46.60;101092.16;107443;1257;97846;-68
2024/03/03 10:12:47;;;;;;;;;;;;;;;13.03;45.72;101092.10;107455;1255;97825;-66
2024/03/03 10:15:17;;;;;;;;;;;;;;;13.14;43.92;101088.33;107565;1251;111949;-68
2024/03/03 10:17:46;;;;;;;;;;;;;;;13.14;43.80;101082.59;107530;1251;108584;-68
2024/03/03 10:20:15;;;;;;;;;;;;;;;13.14;44.37;101079.84;107488;1254;108472;-66
2024/03/03 10:22:43;;;;;;;;;;;;;;;13.17;44.24;101078.88;107481;1255;97992;-66
2024/03/03 10:25:14;;;;;;;;;;;;;;;13.22;44.79;101078.95;107502;1253;97842;-68
2024/03/03 10:27:44;;;;;;;;;;;;;;;13.32;44.51;101077.98;107606;1255;112412;-67
2024/03/03 10:30:14;;;;;;;;;;;;;;;13.32;44.15;101075.83;107613;1254;107689;-69
2024/03/03 10:32:43;;;;;;;;;;;;;;;13.36;43.66;101071.66;107638;1256;108723;-68
2024/03/03 10:35:13;;;;;;;;;;;;;;;13.35;43.57;101066.73;107607;1254;98314;-69
2024/03/03 10:37:48;;;;;;;;;;;;;;;13.38;42.76;101061.56;107562;1255;97723;-69
2024/03/03 10:40:16;;;;;;;;;;;;;;;13.33;42.64;101056.83;107546;1256;111631;-69
2024/03/03 10:42:45;;;;;;;;;;;;;;;13.43;42.51;101053.20;107661;1257;108273;-68
2024/03/03 10:45:14;;;;;;;;;;;;;;;13.42;41.73;101055.80;107589;1256;107879;-68
2024/03/03 10:47:42;;;;;;;;;;;;;;;13.43;42.04;101049.59;107675;1254;97845;-68
2024/03/03 10:50:15;;;;;;;;;;;;;;;13.59;42.62;101047.67;107563;1254;97726;-68
2024/03/03 10:52:43;;;;;;;;;;;;;;;13.77;41.94;101047.89;107553;1256;111573;-68
2024/03/03 10:55:13;;;;;;;;;;;;;;;13.85;42.21;101040.63;107618;1257;107978;-68
2024/03/03 10:57:45;;;;;;;;;;;;;;;13.95;42.01;101035.49;107638;1256;107697;-69
2024/03/03 11:00:22;;;;;;;;;;;;;;;13.89;40.77;101032.83;107639;1257;97913;-69
2024/03/03 11:02:54;;;;;;;;;;;;;;;13.92;41.19;101034.19;107604;1254;97748;-69
2024/03/03 11:05:24;;;;;;;;;;;;;;;13.87;40.10;101026.25;107612;1256;111383;-71
2024/03/03 11:07:56;;;;;;;;;;;;;;;13.78;39.89;101026.91;107578;1257;107972;-70
2024/03/03 11:10:25;;;;;;;;;;;;;;;13.65;40.02;101024.05;107580;1254;107974;-70
2024/03/03 11:12:56;;;;;;;;;;;;;;;13.52;40.43;101026.22;107591;1254;97922;-70
2024/03/03 11:15:25;;;;;;;;;;;;;;;13.69;41.31;101018.23;107572;1255;97864;-70
2024/03/03 11:18:01;;;;;;;;;;;;;;;13.91;40.14;101014.11;107664;1254;111346;-70
2024/03/03 11:20:34;;;;;;;;;;;;;;;14.03;39.63;101012.04;107593;1257;108633;-69
2024/03/03 11:23:24;;;;;;;;;;;;;;;14.05;39.98;101014.27;107587;1254;107565;-69
2024/03/03 11:25:59;;;;;;;;;;;;;;;14.01;40.68;101009.67;107456;1253;97819;-69
2024/03/03 11:28:31;;;;;;;;;;;;;;;14.10;41.08;101007.39;107604;1256;98891;-70
2024/03/03 11:31:00;;;;;;;;;;;;;;;14.12;40.40;101011.33;107506;1255;111835;-73
2024/03/03 11:33:28;;;;;;;;;;;;;;;14.14;40.78;101012.36;107614;1256;106727;-69
2024/03/03 11:35:57;;;;;;;;;;;;;;;14.24;40.97;101008.16;107476;1254;108985;-69
2024/03/03 11:38:35;;;;;;;;;;;;;;;14.43;41.12;101006.74;107543;1254;97860;-69
2024/03/03 11:41:04;;;;;;;;;;;;;;;14.62;40.85;101007.73;107561;1251;97841;-69
2024/03/03 11:43:33;;;;;;;;;;;;;;;14.67;39.85;100999.52;107512;1251;112224;-68
2024/03/03 11:46:02;;;;;;;;;;;;;;;14.66;39.85;101002.08;107565;1254;108728;-70
2024/03/03 11:48:32;;;;;;;;;;;;;;;14.64;39.33;100997.96;107543;1255;108904;-70
2024/03/03 11:51:20;;;;;;;;;;;;;;;14.56;39.04;100997.86;107509;1254;98547;-69
2024/03/03 11:54:04;;;;;;;;;;;;;;;14.52;39.07;100992.17;107619;1254;97925;-70
2024/03/03 11:56:45;;;;;;;;;;;;;;;14.49;39.70;100993.88;107597;1251;111599;-70
2024/03/03 11:59:14;;;;;;;;;;;;;;;14.53;39.31;100990.22;107620;1253;108580;-70
2024/03/03 12:01:49;;;;;;;;;;;;;;;14.56;39.12;100991.16;107567;1257;109145;-71
2024/03/03 12:04:17;;;;;;;;;;;;;;;14.50;39.09;100984.84;107551;1251;97819;-70
2024/03/03 12:06:46;;;;;;;;;;;;;;;14.40;39.23;100990.65;107471;1254;97825;-70
2024/03/03 12:09:17;;;;;;;;;;;;;;;14.25;39.18;100990.31;107583;1255;112459;-70
2024/03/03 12:11:47;;;;;;;;;;;;;;;14.14;39.30;100992.02;107613;1254;107936;-69
2024/03/03 12:14:16;;;;;;;;;;;;;;;14.06;39.67;100991.22;107587;1251;107600;-69
2024/03/03 12:16:44;;;;;;;;;;;;;;;14.06;39.72;100992.30;107581;1254;97882;-71
2024/03/03 12:19:12;;;;;;;;;;;;;;;14.09;39.77;100990.98;107464;1254;97703;-69
2024/03/03 12:21:43;;;;;;;;;;;;;;;14.13;39.77;100989.08;107578;1254;111175;-71
2024/03/03 12:24:13;;;;;;;;;;;;;;;14.14;39.99;100987.56;107638;1254;107674;-71
2024/03/03 12:26:42;;;;;;;;;;;;;;;14.17;39.68;100986.86;107528;1254;107181;-70
2024/03/03 12:29:10;;;;;;;;;;;;;;;14.05;39.42;100985.70;107538;1254;97943;-71
2024/03/03 12:31:39;;;;;;;;;;;;;;;13.99;39.76;100983.06;107566;1254;97749;-70
2024/03/03 12:34:07;;;;;;;;;;;;;;;14.02;39.69;100979.85;107640;1251;111894;-71
2024/03/03 12:36:35;;;;;;;;;;;;;;;14.05;39.14;100980.27;107537;1254;108296;-70
2024/03/03 12:39:07;;;;;;;;;;;;;;;14.06;39.85;100979.97;107562;1257;108609;-68
2024/03/03 12:41:37;;;;;;;;;;;;;;;14.08;39.46;100978.49;107547;1251;97897;-70